sensor_id;sensor_type;location;lat;lon;timestamp;temperature;humidity
6738;DHT22;3406;49.902;8.596;2023-03-23T00:00:55;15.20;56.20
6738;DHT22;3406;49.902;8.596;2023-03-23T00:03:21;15.20;56.30
6738;DHT22;3406;49.902;8.596;2023-03-23T00:05:50;15.20;56.40
6738;DHT22;3406;49.902;8.596;2023-03-23T00:08:18;15.20;56.50
6738;DHT22;3406;49.902;8.596;2023-03-23T00:10:49;15.10;56.50
6738;DHT22;3406;49.902;8.596;2023-03-23T00:13:18;15.10;56.60
6738;DHT22;3406;49.902;8.596;2023-03-23T00:15:45;15.10;56.70
6738;DHT22;3406;49.902;8.596;2023-03-23T00:18:14;15.10;56.70
6738;DHT22;3406;49.902;8.596;2023-03-23T00:20:48;15.10;56.80
6738;DHT22;3406;49.902;8.596;2023-03-23T00:23:15;15.10;57.00
6738;DHT22;3406;49.902;8.596;2023-03-23T00:25:45;15.10;57.10
6738;DHT22;3406;49.902;8.596;2023-03-23T00:28:13;15.10;57.20
6738;DHT22;3406;49.902;8.596;2023-03-23T00:30:40;15.00;57.30
6738;DHT22;3406;49.902;8.596;2023-03-23T00:33:10;15.00;57.50
6738;DHT22;3406;49.902;8.596;2023-03-23T00:35:38;15.00;58.30
6738;DHT22;3406;49.902;8.596;2023-03-23T00:38:05;15.00;58.00
6738;DHT22;3406;49.902;8.596;2023-03-23T00:40:32;15.00;58.20
6738;DHT22;3406;49.902;8.596;2023-03-23T00:43:01;14.90;58.40
6738;DHT22;3406;49.902;8.596;2023-03-23T00:45:30;14.90;58.60
6738;DHT22;3406;49.902;8.596;2023-03-23T00:47:57;14.90;58.70
6738;DHT22;3406;49.902;8.596;2023-03-23T00:50:27;14.90;59.00
6738;DHT22;3406;49.902;8.596;2023-03-23T00:52:54;14.90;59.20
6738;DHT22;3406;49.902;8.596;2023-03-23T00:55:22;14.90;59.30
6738;DHT22;3406;49.902;8.596;2023-03-23T00:57:49;14.90;59.50
6738;DHT22;3406;49.902;8.596;2023-03-23T01:00:17;14.90;59.60
6738;DHT22;3406;49.902;8.596;2023-03-23T01:02:46;14.90;59.80
6738;DHT22;3406;49.902;8.596;2023-03-23T01:05:12;14.90;59.80
6738;DHT22;3406;49.902;8.596;2023-03-23T01:07:40;14.90;59.80
6738;DHT22;3406;49.902;8.596;2023-03-23T01:10:07;14.90;60.00
6738;DHT22;3406;49.902;8.596;2023-03-23T01:12:34;14.90;60.70
6738;DHT22;3406;49.902;8.596;2023-03-23T01:15:01;14.90;60.00
6738;DHT22;3406;49.902;8.596;2023-03-23T01:17:28;14.90;60.10
6738;DHT22;3406;49.902;8.596;2023-03-23T01:19:56;14.90;60.20
6738;DHT22;3406;49.902;8.596;2023-03-23T01:22:22;14.90;60.30
6738;DHT22;3406;49.902;8.596;2023-03-23T01:24:49;14.90;60.30
6738;DHT22;3406;49.902;8.596;2023-03-23T01:27:16;14.90;60.40
6738;DHT22;3406;49.902;8.596;2023-03-23T01:29:42;14.90;60.50
6738;DHT22;3406;49.902;8.596;2023-03-23T01:32:09;14.90;60.60
6738;DHT22;3406;49.902;8.596;2023-03-23T01:34:36;14.90;60.80
6738;DHT22;3406;49.902;8.596;2023-03-23T01:37:04;14.80;60.80
6738;DHT22;3406;49.902;8.596;2023-03-23T01:39:30;14.80;61.00
6738;DHT22;3406;49.902;8.596;2023-03-23T01:41:57;14.80;61.10
6738;DHT22;3406;49.902;8.596;2023-03-23T01:47:27;14.80;61.40
6738;DHT22;3406;49.902;8.596;2023-03-23T01:49:54;14.70;61.60
6738;DHT22;3406;49.902;8.596;2023-03-23T01:52:24;14.70;61.70
6738;DHT22;3406;49.902;8.596;2023-03-23T01:54:55;14.70;61.90
6738;DHT22;3406;49.902;8.596;2023-03-23T01:57:23;14.70;62.00
6738;DHT22;3406;49.902;8.596;2023-03-23T01:59:53;14.70;62.00
6738;DHT22;3406;49.902;8.596;2023-03-23T02:02:22;14.70;62.30
6738;DHT22;3406;49.902;8.596;2023-03-23T02:04:49;14.70;62.70
6738;DHT22;3406;49.902;8.596;2023-03-23T02:07:18;14.60;62.90
6738;DHT22;3406;49.902;8.596;2023-03-23T02:09:49;14.60;63.30
6738;DHT22;3406;49.902;8.596;2023-03-23T02:12:16;14.50;63.50
6738;DHT22;3406;49.902;8.596;2023-03-23T02:14:43;14.50;63.80
6738;DHT22;3406;49.902;8.596;2023-03-23T02:17:15;14.50;64.00
6738;DHT22;3406;49.902;8.596;2023-03-23T02:20:06;14.50;64.40
6738;DHT22;3406;49.902;8.596;2023-03-23T02:22:47;14.50;64.60
6738;DHT22;3406;49.902;8.596;2023-03-23T02:25:41;14.50;64.60
6738;DHT22;3406;49.902;8.596;2023-03-23T02:28:26;14.40;64.60
6738;DHT22;3406;49.902;8.596;2023-03-23T02:31:11;14.40;64.70
6738;DHT22;3406;49.902;8.596;2023-03-23T02:33:47;14.40;64.70
6738;DHT22;3406;49.902;8.596;2023-03-23T02:36:23;14.40;64.80
6738;DHT22;3406;49.902;8.596;2023-03-23T02:38:57;14.40;64.80
6738;DHT22;3406;49.902;8.596;2023-03-23T02:41:29;14.40;64.70
6738;DHT22;3406;49.902;8.596;2023-03-23T02:43:58;14.30;64.60
6738;DHT22;3406;49.902;8.596;2023-03-23T02:46:26;14.30;64.60
6738;DHT22;3406;49.902;8.596;2023-03-23T02:48:55;14.30;64.50
6738;DHT22;3406;49.902;8.596;2023-03-23T02:51:24;14.30;64.50
6738;DHT22;3406;49.902;8.596;2023-03-23T02:53:53;14.30;64.50
6738;DHT22;3406;49.902;8.596;2023-03-23T02:56:23;14.30;64.60
6738;DHT22;3406;49.902;8.596;2023-03-23T02:58:51;14.30;64.80
6738;DHT22;3406;49.902;8.596;2023-03-23T03:01:54;14.30;65.00
6738;DHT22;3406;49.902;8.596;2023-03-23T03:04:24;14.30;65.30
6738;DHT22;3406;49.902;8.596;2023-03-23T03:07:23;14.20;65.40
6738;DHT22;3406;49.902;8.596;2023-03-23T03:09:55;14.20;66.50
6738;DHT22;3406;49.902;8.596;2023-03-23T03:12:31;14.10;66.00
6738;DHT22;3406;49.902;8.596;2023-03-23T03:15:06;14.10;66.60
6738;DHT22;3406;49.902;8.596;2023-03-23T03:17:38;14.00;66.90
6738;DHT22;3406;49.902;8.596;2023-03-23T03:20:10;14.00;67.50
6738;DHT22;3406;49.902;8.596;2023-03-23T03:22:41;13.90;67.60
6738;DHT22;3406;49.902;8.596;2023-03-23T03:25:10;13.90;68.00
6738;DHT22;3406;49.902;8.596;2023-03-23T03:27:39;13.80;68.10
6738;DHT22;3406;49.902;8.596;2023-03-23T03:30:10;13.80;68.20
6738;DHT22;3406;49.902;8.596;2023-03-23T03:32:42;13.80;68.30
6738;DHT22;3406;49.902;8.596;2023-03-23T03:35:13;13.90;68.60
6738;DHT22;3406;49.902;8.596;2023-03-23T03:37:40;13.90;68.50
6738;DHT22;3406;49.902;8.596;2023-03-23T03:40:11;13.90;68.50
6738;DHT22;3406;49.902;8.596;2023-03-23T03:42:38;13.90;68.50
6738;DHT22;3406;49.902;8.596;2023-03-23T03:45:07;13.90;68.50
6738;DHT22;3406;49.902;8.596;2023-03-23T03:47:34;13.90;68.50
6738;DHT22;3406;49.902;8.596;2023-03-23T03:50:01;13.90;68.50
6738;DHT22;3406;49.902;8.596;2023-03-23T03:52:29;13.90;68.70
6738;DHT22;3406;49.902;8.596;2023-03-23T03:54:57;13.90;68.80
6738;DHT22;3406;49.902;8.596;2023-03-23T03:57:24;13.90;68.90
6738;DHT22;3406;49.902;8.596;2023-03-23T03:59:51;13.80;68.90
6738;DHT22;3406;49.902;8.596;2023-03-23T04:02:19;13.80;69.00
6738;DHT22;3406;49.902;8.596;2023-03-23T04:04:46;13.80;69.20
6738;DHT22;3406;49.902;8.596;2023-03-23T04:07:13;13.80;69.30
6738;DHT22;3406;49.902;8.596;2023-03-23T04:09:43;13.80;69.40
6738;DHT22;3406;49.902;8.596;2023-03-23T04:12:11;13.80;69.70
6738;DHT22;3406;49.902;8.596;2023-03-23T04:14:38;13.70;69.70
6738;DHT22;3406;49.902;8.596;2023-03-23T04:17:05;13.70;69.90
6738;DHT22;3406;49.902;8.596;2023-03-23T04:19:32;13.70;70.00
6738;DHT22;3406;49.902;8.596;2023-03-23T04:21:59;13.70;70.20
6738;DHT22;3406;49.902;8.596;2023-03-23T04:24:26;13.70;70.20
6738;DHT22;3406;49.902;8.596;2023-03-23T04:26:57;13.70;70.30
6738;DHT22;3406;49.902;8.596;2023-03-23T04:29:24;13.70;70.30
6738;DHT22;3406;49.902;8.596;2023-03-23T04:31:52;13.60;70.30
6738;DHT22;3406;49.902;8.596;2023-03-23T04:34:21;13.60;70.40
6738;DHT22;3406;49.902;8.596;2023-03-23T04:36:48;13.60;70.60
6738;DHT22;3406;49.902;8.596;2023-03-23T04:39:16;13.60;70.80
6738;DHT22;3406;49.902;8.596;2023-03-23T04:41:43;13.60;70.90
6738;DHT22;3406;49.902;8.596;2023-03-23T04:44:12;13.50;70.90
6738;DHT22;3406;49.902;8.596;2023-03-23T04:46:43;13.50;71.00
6738;DHT22;3406;49.902;8.596;2023-03-23T04:49:10;13.50;71.10
6738;DHT22;3406;49.902;8.596;2023-03-23T04:51:37;13.50;71.20
6738;DHT22;3406;49.902;8.596;2023-03-23T04:54:04;13.50;71.20
6738;DHT22;3406;49.902;8.596;2023-03-23T04:56:31;13.50;71.20
6738;DHT22;3406;49.902;8.596;2023-03-23T04:58:57;13.60;71.30
6738;DHT22;3406;49.902;8.596;2023-03-23T05:01:27;13.60;71.30
6738;DHT22;3406;49.902;8.596;2023-03-23T05:03:54;13.60;71.30
6738;DHT22;3406;49.902;8.596;2023-03-23T05:06:21;13.60;71.30
6738;DHT22;3406;49.902;8.596;2023-03-23T05:08:48;13.60;71.40
6738;DHT22;3406;49.902;8.596;2023-03-23T05:11:15;13.60;71.30
6738;DHT22;3406;49.902;8.596;2023-03-23T05:13:41;13.60;71.30
6738;DHT22;3406;49.902;8.596;2023-03-23T05:16:09;13.70;71.30
6738;DHT22;3406;49.902;8.596;2023-03-23T05:18:37;13.80;71.20
6738;DHT22;3406;49.902;8.596;2023-03-23T05:21:04;13.80;70.80
6738;DHT22;3406;49.902;8.596;2023-03-23T05:23:31;13.90;70.70
6738;DHT22;3406;49.902;8.596;2023-03-23T05:25:59;14.00;70.50
6738;DHT22;3406;49.902;8.596;2023-03-23T05:28:28;14.00;70.30
6738;DHT22;3406;49.902;8.596;2023-03-23T05:30:56;14.10;70.20
6738;DHT22;3406;49.902;8.596;2023-03-23T05:33:22;14.10;70.00
6738;DHT22;3406;49.902;8.596;2023-03-23T05:35:50;14.20;70.00
6738;DHT22;3406;49.902;8.596;2023-03-23T05:38:17;14.20;69.90
6738;DHT22;3406;49.902;8.596;2023-03-23T05:40:45;14.20;69.90
6738;DHT22;3406;49.902;8.596;2023-03-23T05:43:11;14.20;70.00
6738;DHT22;3406;49.902;8.596;2023-03-23T05:45:38;14.20;70.10
6738;DHT22;3406;49.902;8.596;2023-03-23T05:48:05;14.10;70.20
6738;DHT22;3406;49.902;8.596;2023-03-23T05:50:32;14.10;70.50
6738;DHT22;3406;49.902;8.596;2023-03-23T05:52:59;14.10;70.70
6738;DHT22;3406;49.902;8.596;2023-03-23T05:55:27;14.10;71.00
6738;DHT22;3406;49.902;8.596;2023-03-23T05:57:53;14.10;71.30
6738;DHT22;3406;49.902;8.596;2023-03-23T06:00:20;14.10;71.80
6738;DHT22;3406;49.902;8.596;2023-03-23T06:02:49;14.00;72.20
6738;DHT22;3406;49.902;8.596;2023-03-23T06:05:16;14.00;72.70
6738;DHT22;3406;49.902;8.596;2023-03-23T06:07:43;14.00;73.20
6738;DHT22;3406;49.902;8.596;2023-03-23T06:10:11;13.90;73.80
6738;DHT22;3406;49.902;8.596;2023-03-23T06:12:39;13.90;74.30
6738;DHT22;3406;49.902;8.596;2023-03-23T06:15:07;13.90;74.90
6738;DHT22;3406;49.902;8.596;2023-03-23T06:17:35;13.80;75.40
6738;DHT22;3406;49.902;8.596;2023-03-23T06:20:02;13.70;75.80
6738;DHT22;3406;49.902;8.596;2023-03-23T06:22:34;13.70;76.20
6738;DHT22;3406;49.902;8.596;2023-03-23T06:25:00;13.70;76.60
6738;DHT22;3406;49.902;8.596;2023-03-23T06:27:28;13.70;76.90
6738;DHT22;3406;49.902;8.596;2023-03-23T06:29:55;13.70;77.30
6738;DHT22;3406;49.902;8.596;2023-03-23T06:32:24;13.60;77.60
6738;DHT22;3406;49.902;8.596;2023-03-23T06:34:51;13.70;78.20
6738;DHT22;3406;49.902;8.596;2023-03-23T06:37:18;13.60;78.30
6738;DHT22;3406;49.902;8.596;2023-03-23T06:39:44;13.60;78.60
6738;DHT22;3406;49.902;8.596;2023-03-23T06:42:12;13.60;79.00
6738;DHT22;3406;49.902;8.596;2023-03-23T06:44:40;13.50;79.30
6738;DHT22;3406;49.902;8.596;2023-03-23T06:47:06;13.50;79.70
6738;DHT22;3406;49.902;8.596;2023-03-23T06:49:34;13.50;80.40
6738;DHT22;3406;49.902;8.596;2023-03-23T06:52:00;13.40;80.70
6738;DHT22;3406;49.902;8.596;2023-03-23T06:54:29;13.40;81.00
6738;DHT22;3406;49.902;8.596;2023-03-23T06:56:55;13.40;81.30
6738;DHT22;3406;49.902;8.596;2023-03-23T06:59:22;13.40;81.80
6738;DHT22;3406;49.902;8.596;2023-03-23T07:01:50;13.40;82.10
6738;DHT22;3406;49.902;8.596;2023-03-23T07:04:17;13.30;82.50
6738;DHT22;3406;49.902;8.596;2023-03-23T07:06:43;13.30;83.60
6738;DHT22;3406;49.902;8.596;2023-03-23T07:09:10;13.30;83.30
6738;DHT22;3406;49.902;8.596;2023-03-23T07:11:37;13.30;83.60
6738;DHT22;3406;49.902;8.596;2023-03-23T07:14:04;13.30;84.00
6738;DHT22;3406;49.902;8.596;2023-03-23T07:16:30;13.30;84.20
6738;DHT22;3406;49.902;8.596;2023-03-23T07:18:58;13.30;84.40
6738;DHT22;3406;49.902;8.596;2023-03-23T07:21:26;13.30;84.80
6738;DHT22;3406;49.902;8.596;2023-03-23T07:23:52;13.30;85.10
6738;DHT22;3406;49.902;8.596;2023-03-23T07:26:19;13.30;85.40
6738;DHT22;3406;49.902;8.596;2023-03-23T07:28:46;13.30;85.90
6738;DHT22;3406;49.902;8.596;2023-03-23T07:31:13;13.30;86.10
6738;DHT22;3406;49.902;8.596;2023-03-23T07:33:40;13.30;86.30
6738;DHT22;3406;49.902;8.596;2023-03-23T07:36:09;13.30;86.60
6738;DHT22;3406;49.902;8.596;2023-03-23T07:38:36;13.30;87.00
6738;DHT22;3406;49.902;8.596;2023-03-23T07:41:03;13.30;87.10
6738;DHT22;3406;49.902;8.596;2023-03-23T07:43:29;13.30;87.30
6738;DHT22;3406;49.902;8.596;2023-03-23T07:45:57;13.30;87.50
6738;DHT22;3406;49.902;8.596;2023-03-23T07:48:24;13.30;87.60
6738;DHT22;3406;49.902;8.596;2023-03-23T07:50:50;13.30;87.60
6738;DHT22;3406;49.902;8.596;2023-03-23T07:53:18;13.30;87.70
6738;DHT22;3406;49.902;8.596;2023-03-23T07:55:46;13.40;87.90
6738;DHT22;3406;49.902;8.596;2023-03-23T07:58:14;13.40;88.00
6738;DHT22;3406;49.902;8.596;2023-03-23T08:00:45;13.40;88.00
6738;DHT22;3406;49.902;8.596;2023-03-23T08:03:13;13.40;88.00
6738;DHT22;3406;49.902;8.596;2023-03-23T08:05:40;13.40;87.90
6738;DHT22;3406;49.902;8.596;2023-03-23T08:08:08;13.40;87.90
6738;DHT22;3406;49.902;8.596;2023-03-23T08:10:37;13.40;87.90
6738;DHT22;3406;49.902;8.596;2023-03-23T08:13:03;13.40;87.80
6738;DHT22;3406;49.902;8.596;2023-03-23T08:15:31;13.50;87.80
6738;DHT22;3406;49.902;8.596;2023-03-23T08:18:03;13.50;87.70
6738;DHT22;3406;49.902;8.596;2023-03-23T08:20:30;13.50;87.70
6738;DHT22;3406;49.902;8.596;2023-03-23T08:22:58;13.50;87.60
6738;DHT22;3406;49.902;8.596;2023-03-23T08:25:26;13.50;87.50
6738;DHT22;3406;49.902;8.596;2023-03-23T08:27:54;13.50;87.50
6738;DHT22;3406;49.902;8.596;2023-03-23T08:30:21;13.50;87.50
6738;DHT22;3406;49.902;8.596;2023-03-23T08:32:50;13.50;87.50
6738;DHT22;3406;49.902;8.596;2023-03-23T08:35:18;13.50;87.60
6738;DHT22;3406;49.902;8.596;2023-03-23T08:37:45;13.50;87.70
6738;DHT22;3406;49.902;8.596;2023-03-23T08:40:16;13.50;87.80
6738;DHT22;3406;49.902;8.596;2023-03-23T08:42:45;13.50;88.00
6738;DHT22;3406;49.902;8.596;2023-03-23T08:45:16;13.50;88.00
6738;DHT22;3406;49.902;8.596;2023-03-23T08:47:43;13.50;88.10
6738;DHT22;3406;49.902;8.596;2023-03-23T08:50:14;13.50;88.20
6738;DHT22;3406;49.902;8.596;2023-03-23T08:52:41;13.60;88.30
6738;DHT22;3406;49.902;8.596;2023-03-23T08:55:09;13.60;88.30
6738;DHT22;3406;49.902;8.596;2023-03-23T08:57:36;13.70;88.50
6738;DHT22;3406;49.902;8.596;2023-03-23T09:00:05;13.60;88.30
6738;DHT22;3406;49.902;8.596;2023-03-23T09:02:40;13.70;88.40
6738;DHT22;3406;49.902;8.596;2023-03-23T09:05:07;13.70;88.30
6738;DHT22;3406;49.902;8.596;2023-03-23T09:07:35;13.80;88.30
6738;DHT22;3406;49.902;8.596;2023-03-23T09:10:02;13.90;88.30
6738;DHT22;3406;49.902;8.596;2023-03-23T09:12:29;13.90;88.20
6738;DHT22;3406;49.902;8.596;2023-03-23T09:14:56;13.90;87.90
6738;DHT22;3406;49.902;8.596;2023-03-23T09:17:22;14.00;87.90
6738;DHT22;3406;49.902;8.596;2023-03-23T09:19:50;14.00;87.80
6738;DHT22;3406;49.902;8.596;2023-03-23T09:22:17;14.10;87.80
6738;DHT22;3406;49.902;8.596;2023-03-23T09:24:45;14.10;87.50
6738;DHT22;3406;49.902;8.596;2023-03-23T09:27:12;14.20;87.20
6738;DHT22;3406;49.902;8.596;2023-03-23T09:29:40;14.20;87.10
6738;DHT22;3406;49.902;8.596;2023-03-23T09:32:07;14.30;86.90
6738;DHT22;3406;49.902;8.596;2023-03-23T09:34:34;14.30;86.60
6738;DHT22;3406;49.902;8.596;2023-03-23T09:37:06;14.40;86.50
6738;DHT22;3406;49.902;8.596;2023-03-23T09:39:33;14.40;86.10
6738;DHT22;3406;49.902;8.596;2023-03-23T09:42:16;14.50;85.90
6738;DHT22;3406;49.902;8.596;2023-03-23T09:44:57;14.50;85.60
6738;DHT22;3406;49.902;8.596;2023-03-23T09:47:33;14.60;85.60
6738;DHT22;3406;49.902;8.596;2023-03-23T09:50:07;14.80;85.50
6738;DHT22;3406;49.902;8.596;2023-03-23T09:52:40;14.80;84.80
6738;DHT22;3406;49.902;8.596;2023-03-23T09:55:10;15.00;84.60
6738;DHT22;3406;49.902;8.596;2023-03-23T09:57:40;15.20;84.10
6738;DHT22;3406;49.902;8.596;2023-03-23T10:00:12;15.30;83.30
6738;DHT22;3406;49.902;8.596;2023-03-23T10:02:48;15.40;82.60
6738;DHT22;3406;49.902;8.596;2023-03-23T10:05:30;15.50;82.10
6738;DHT22;3406;49.902;8.596;2023-03-23T10:07:59;15.50;81.00
6738;DHT22;3406;49.902;8.596;2023-03-23T10:10:33;15.50;80.60
6738;DHT22;3406;49.902;8.596;2023-03-23T10:13:06;15.50;80.70
6738;DHT22;3406;49.902;8.596;2023-03-23T10:15:36;15.50;80.60
6738;DHT22;3406;49.902;8.596;2023-03-23T10:18:12;15.50;80.70
6738;DHT22;3406;49.902;8.596;2023-03-23T10:20:44;15.50;80.70
6738;DHT22;3406;49.902;8.596;2023-03-23T10:23:33;15.40;80.80
6738;DHT22;3406;49.902;8.596;2023-03-23T10:26:06;15.30;80.90
6738;DHT22;3406;49.902;8.596;2023-03-23T10:28:36;15.30;81.40
6738;DHT22;3406;49.902;8.596;2023-03-23T10:31:05;15.30;81.80
6738;DHT22;3406;49.902;8.596;2023-03-23T10:33:38;15.20;81.50
6738;DHT22;3406;49.902;8.596;2023-03-23T10:36:10;15.10;81.70
6738;DHT22;3406;49.902;8.596;2023-03-23T10:38:44;15.10;82.00
6738;DHT22;3406;49.902;8.596;2023-03-23T10:41:14;15.10;82.00
6738;DHT22;3406;49.902;8.596;2023-03-23T10:43:42;15.10;81.70
6738;DHT22;3406;49.902;8.596;2023-03-23T10:46:19;15.00;81.90
6738;DHT22;3406;49.902;8.596;2023-03-23T10:48:49;15.00;82.00
6738;DHT22;3406;49.902;8.596;2023-03-23T10:51:20;15.10;82.10
6738;DHT22;3406;49.902;8.596;2023-03-23T10:53:55;15.20;81.90
6738;DHT22;3406;49.902;8.596;2023-03-23T10:56:24;15.20;81.60
6738;DHT22;3406;49.902;8.596;2023-03-23T10:58:51;15.20;81.70
6738;DHT22;3406;49.902;8.596;2023-03-23T11:01:20;15.20;81.40
6738;DHT22;3406;49.902;8.596;2023-03-23T11:03:54;15.20;81.50
6738;DHT22;3406;49.902;8.596;2023-03-23T11:06:23;15.20;81.30
6738;DHT22;3406;49.902;8.596;2023-03-23T11:08:55;15.30;81.20
6738;DHT22;3406;49.902;8.596;2023-03-23T11:11:26;15.30;80.80
6738;DHT22;3406;49.902;8.596;2023-03-23T11:13:57;15.40;81.10
6738;DHT22;3406;49.902;8.596;2023-03-23T11:16:26;15.40;81.00
6738;DHT22;3406;49.902;8.596;2023-03-23T11:18:53;15.50;80.70
6738;DHT22;3406;49.902;8.596;2023-03-23T11:21:22;15.40;80.30
6738;DHT22;3406;49.902;8.596;2023-03-23T11:23:52;15.40;80.10
6738;DHT22;3406;49.902;8.596;2023-03-23T11:26:22;15.30;80.20
6738;DHT22;3406;49.902;8.596;2023-03-23T11:28:55;15.30;80.20
6738;DHT22;3406;49.902;8.596;2023-03-23T11:31:23;15.20;80.30
6738;DHT22;3406;49.902;8.596;2023-03-23T11:33:54;15.30;80.70
6738;DHT22;3406;49.902;8.596;2023-03-23T11:36:29;15.40;80.60
6738;DHT22;3406;49.902;8.596;2023-03-23T11:38:57;15.50;81.20
6738;DHT22;3406;49.902;8.596;2023-03-23T11:41:25;15.50;80.40
6738;DHT22;3406;49.902;8.596;2023-03-23T11:43:54;15.50;80.20
6738;DHT22;3406;49.902;8.596;2023-03-23T11:46:30;15.50;80.20
6738;DHT22;3406;49.902;8.596;2023-03-23T11:49:01;15.50;80.00
6738;DHT22;3406;49.902;8.596;2023-03-23T11:51:33;15.50;80.10
6738;DHT22;3406;49.902;8.596;2023-03-23T11:54:12;15.40;80.00
6738;DHT22;3406;49.902;8.596;2023-03-23T11:56:41;15.30;79.80
6738;DHT22;3406;49.902;8.596;2023-03-23T11:59:12;15.30;79.80
6738;DHT22;3406;49.902;8.596;2023-03-23T12:01:53;15.30;79.90
6738;DHT22;3406;49.902;8.596;2023-03-23T12:07:36;15.20;79.70
6738;DHT22;3406;49.902;8.596;2023-03-23T12:10:16;15.20;79.60
6738;DHT22;3406;49.902;8.596;2023-03-23T12:12:51;15.20;79.50
6738;DHT22;3406;49.902;8.596;2023-03-23T12:15:25;15.20;79.40
6738;DHT22;3406;49.902;8.596;2023-03-23T12:18:00;15.10;79.20
6738;DHT22;3406;49.902;8.596;2023-03-23T12:20:36;15.10;79.20
6738;DHT22;3406;49.902;8.596;2023-03-23T12:23:21;15.20;79.30
6738;DHT22;3406;49.902;8.596;2023-03-23T12:26:16;15.20;79.40
6738;DHT22;3406;49.902;8.596;2023-03-23T12:29:06;15.20;79.40
6738;DHT22;3406;49.902;8.596;2023-03-23T12:31:41;15.20;79.40
6738;DHT22;3406;49.902;8.596;2023-03-23T12:34:16;15.30;80.20
6738;DHT22;3406;49.902;8.596;2023-03-23T12:36:53;15.40;79.60
6738;DHT22;3406;49.902;8.596;2023-03-23T12:39:46;15.50;79.60
6738;DHT22;3406;49.902;8.596;2023-03-23T12:42:24;15.70;79.50
6738;DHT22;3406;49.902;8.596;2023-03-23T12:44:55;15.90;79.30
6738;DHT22;3406;49.902;8.596;2023-03-23T12:47:32;16.00;79.10
6738;DHT22;3406;49.902;8.596;2023-03-23T12:50:05;16.10;79.00
6738;DHT22;3406;49.902;8.596;2023-03-23T12:52:39;16.20;78.80
6738;DHT22;3406;49.902;8.596;2023-03-23T12:55:16;16.30;78.50
6738;DHT22;3406;49.902;8.596;2023-03-23T12:57:51;16.20;77.90
6738;DHT22;3406;49.902;8.596;2023-03-23T13:00:23;16.20;78.00
6738;DHT22;3406;49.902;8.596;2023-03-23T13:02:56;16.30;78.20
6738;DHT22;3406;49.902;8.596;2023-03-23T13:05:40;16.40;78.10
6738;DHT22;3406;49.902;8.596;2023-03-23T13:08:12;16.60;78.00
6738;DHT22;3406;49.902;8.596;2023-03-23T13:10:45;16.70;77.40
6738;DHT22;3406;49.902;8.596;2023-03-23T13:13:17;16.60;77.00
6738;DHT22;3406;49.902;8.596;2023-03-23T13:15:53;16.50;76.80
6738;DHT22;3406;49.902;8.596;2023-03-23T13:18:27;16.50;77.10
6738;DHT22;3406;49.902;8.596;2023-03-23T13:21:05;16.40;77.00
6738;DHT22;3406;49.902;8.596;2023-03-23T13:23:36;16.40;76.70
6738;DHT22;3406;49.902;8.596;2023-03-23T13:26:06;16.40;76.50
6738;DHT22;3406;49.902;8.596;2023-03-23T13:28:49;16.40;76.30
6738;DHT22;3406;49.902;8.596;2023-03-23T13:31:21;16.40;76.20
6738;DHT22;3406;49.902;8.596;2023-03-23T13:33:51;16.40;76.00
6738;DHT22;3406;49.902;8.596;2023-03-23T13:36:33;16.40;75.80
6738;DHT22;3406;49.902;8.596;2023-03-23T13:39:03;16.40;75.40
6738;DHT22;3406;49.902;8.596;2023-03-23T13:41:33;16.40;74.90
6738;DHT22;3406;49.902;8.596;2023-03-23T13:44:18;16.40;74.60
6738;DHT22;3406;49.902;8.596;2023-03-23T13:47:06;16.40;74.40
6738;DHT22;3406;49.902;8.596;2023-03-23T13:49:33;16.40;74.40
6738;DHT22;3406;49.902;8.596;2023-03-23T13:52:06;16.40;74.30
6738;DHT22;3406;49.902;8.596;2023-03-23T13:54:40;16.40;74.30
6738;DHT22;3406;49.902;8.596;2023-03-23T13:57:21;16.30;74.30
6738;DHT22;3406;49.902;8.596;2023-03-23T13:59:57;16.30;74.20
6738;DHT22;3406;49.902;8.596;2023-03-23T14:02:38;16.20;74.30
6738;DHT22;3406;49.902;8.596;2023-03-23T14:05:31;16.20;74.50
6738;DHT22;3406;49.902;8.596;2023-03-23T14:08:01;16.10;74.60
6738;DHT22;3406;49.902;8.596;2023-03-23T14:10:34;16.10;74.70
6738;DHT22;3406;49.902;8.596;2023-03-23T14:13:03;16.10;74.60
6738;DHT22;3406;49.902;8.596;2023-03-23T14:15:42;16.10;74.60
6738;DHT22;3406;49.902;8.596;2023-03-23T14:18:14;16.10;74.80
6738;DHT22;3406;49.902;8.596;2023-03-23T14:20:43;16.10;74.90
6738;DHT22;3406;49.902;8.596;2023-03-23T14:23:16;16.10;75.00
6738;DHT22;3406;49.902;8.596;2023-03-23T14:25:43;16.10;75.00
6738;DHT22;3406;49.902;8.596;2023-03-23T14:28:18;16.10;75.00
6738;DHT22;3406;49.902;8.596;2023-03-23T14:30:48;16.10;75.00
6738;DHT22;3406;49.902;8.596;2023-03-23T14:33:15;16.00;75.00
6738;DHT22;3406;49.902;8.596;2023-03-23T14:35:43;16.00;75.00
6738;DHT22;3406;49.902;8.596;2023-03-23T14:38:15;15.90;75.10
6738;DHT22;3406;49.902;8.596;2023-03-23T14:40:44;15.90;75.30
6738;DHT22;3406;49.902;8.596;2023-03-23T14:43:12;15.80;75.30
6738;DHT22;3406;49.902;8.596;2023-03-23T14:45:41;15.80;75.40
6738;DHT22;3406;49.902;8.596;2023-03-23T14:48:13;15.80;75.60
6738;DHT22;3406;49.902;8.596;2023-03-23T14:50:48;15.70;75.70
6738;DHT22;3406;49.902;8.596;2023-03-23T14:53:18;15.70;75.80
6738;DHT22;3406;49.902;8.596;2023-03-23T14:55:47;15.60;75.80
6738;DHT22;3406;49.902;8.596;2023-03-23T14:58:16;15.60;75.90
6738;DHT22;3406;49.902;8.596;2023-03-23T15:00:45;15.60;76.00
6738;DHT22;3406;49.902;8.596;2023-03-23T15:03:16;15.60;76.00
6738;DHT22;3406;49.902;8.596;2023-03-23T15:05:46;15.60;76.10
6738;DHT22;3406;49.902;8.596;2023-03-23T15:08:15;15.60;76.30
6738;DHT22;3406;49.902;8.596;2023-03-23T15:10:52;15.60;76.30
6738;DHT22;3406;49.902;8.596;2023-03-23T15:13:21;15.60;76.50
6738;DHT22;3406;49.902;8.596;2023-03-23T15:15:48;15.60;76.50
6738;DHT22;3406;49.902;8.596;2023-03-23T15:18:30;15.50;76.50
6738;DHT22;3406;49.902;8.596;2023-03-23T15:24:26;15.60;76.90
6738;DHT22;3406;49.902;8.596;2023-03-23T15:26:53;15.60;76.90
6738;DHT22;3406;49.902;8.596;2023-03-23T15:29:22;15.60;76.80
6738;DHT22;3406;49.902;8.596;2023-03-23T15:31:51;15.60;76.90
6738;DHT22;3406;49.902;8.596;2023-03-23T15:34:25;15.60;76.90
6738;DHT22;3406;49.902;8.596;2023-03-23T15:36:56;15.60;77.00
6738;DHT22;3406;49.902;8.596;2023-03-23T15:39:23;15.60;76.90
6738;DHT22;3406;49.902;8.596;2023-03-23T15:41:52;15.60;76.90
6738;DHT22;3406;49.902;8.596;2023-03-23T15:44:30;15.60;76.90
6738;DHT22;3406;49.902;8.596;2023-03-23T15:47:15;15.60;77.00
6738;DHT22;3406;49.902;8.596;2023-03-23T15:49:44;15.70;77.10
6738;DHT22;3406;49.902;8.596;2023-03-23T15:52:12;15.60;77.00
6738;DHT22;3406;49.902;8.596;2023-03-23T15:54:46;15.60;77.10
6738;DHT22;3406;49.902;8.596;2023-03-23T15:57:13;15.60;77.20
6738;DHT22;3406;49.902;8.596;2023-03-23T15:59:39;15.50;77.30
6738;DHT22;3406;49.902;8.596;2023-03-23T16:02:13;15.50;77.50
6738;DHT22;3406;49.902;8.596;2023-03-23T16:04:43;15.40;77.70
6738;DHT22;3406;49.902;8.596;2023-03-23T16:07:12;15.40;77.70
6738;DHT22;3406;49.902;8.596;2023-03-23T16:09:39;15.40;78.00
6738;DHT22;3406;49.902;8.596;2023-03-23T16:12:09;15.40;78.10
6738;DHT22;3406;49.902;8.596;2023-03-23T16:14:37;15.40;78.20
6738;DHT22;3406;49.902;8.596;2023-03-23T16:17:04;15.40;78.30
6738;DHT22;3406;49.902;8.596;2023-03-23T16:19:47;15.40;78.40
6738;DHT22;3406;49.902;8.596;2023-03-23T16:22:14;15.40;78.40
6738;DHT22;3406;49.902;8.596;2023-03-23T16:24:41;15.40;78.40
6738;DHT22;3406;49.902;8.596;2023-03-23T16:27:08;15.40;78.60
6738;DHT22;3406;49.902;8.596;2023-03-23T16:29:35;15.30;78.60
6738;DHT22;3406;49.902;8.596;2023-03-23T16:32:02;15.30;78.70